08:15
Airports
History
Links
Donate
Help keep this website running!
PayPal
Bitcoin
Information on this page is community maintained and may be outdated or inaccurate and is intended for reference only or PC simulator navigating!
Always use approved charts for navigating.
VT06
Santas
Santas (VT06)
Putney, Vermont, United States (5346)
4
Lat/Lng:43° 0' 16" N / 72° 28' 25.3" W
43.004444 / -72.473694
Elevation:673'ft 205mMSL
ID / ICAO:VT06
Runways:1
Longest:(17-35) 611.5m 2,006ft Grass
Distance To
Airport ID:
Nearby VORs <50NM
Nearby NDBs
Nearby WeatherUpdated 03-28-17 07:56 GMT
Nearby weather at KEEN, Dillant-hopkins located 12.6 nautical miles from VT06
Altimeter: 29.98
Visibility: 7.0 statute miles
Wind: 3 knots (350°)
Temp: 1°c 34°f
Humidity: 100.0%

METAR: KEEN 280756Z AUTO 35003KT 7SM OVC006 01/01 A2998 RMK AO2 SLP171 T00110011 FZRANO

(Powered by phpweather)
Runway 17 / 35
Dimensions:611.5 x 15.2m 2006' x 50'ft
Surface:Grass
Runway 17 [A]Runway 35 [B]
Heading:154°TH 334°TH
Lat:
Lng:
43° 0' 24.95"N
72° 28' 31.01"W
43° 0' 7.05"N
72° 28' 19.59"W
Google Map
Nearby Airports
(R) Frank D. Comerford 3.0 NM
NH39 NE 47°
(R) Major W. Guth 4.0 NM
VT34 NNW 346°
4 Moores Field 6.2 NM
VT41 SSW 207°
(R) Onyon 9.1 NM
VT43 W 276°
(U) Dillant-hopkins 12.6 NM
KEEN (WX) SE 125°
4 Blodgett 17.0 NM
VT47 S 180°
4 North Windham 19.2 NM
VT05 NW 321°
VFR Chart
Flight Planning at SkyVector.com